sensor_id;sensor_type;location;lat;lon;timestamp;P1;durP1;ratioP1;P2;durP2;ratioP2
20367;SDS011;10343;52.402;9.796;2023-08-06T00:02:10;1.38;;;0.00;;
20367;SDS011;10343;52.402;9.796;2023-08-06T00:04:38;0.45;;;0.00;;
20367;SDS011;10343;52.402;9.796;2023-08-06T00:07:24;0.35;;;0.00;;
20367;SDS011;10343;52.402;9.796;2023-08-06T00:09:54;0.28;;;0.00;;
20367;SDS011;10343;52.402;9.796;2023-08-06T00:12:31;0.20;;;0.00;;
20367;SDS011;10343;52.402;9.796;2023-08-06T00:15:01;0.22;;;0.00;;
20367;SDS011;10343;52.402;9.796;2023-08-06T00:17:38;0.65;;;0.00;;
20367;SDS011;10343;52.402;9.796;2023-08-06T00:20:09;0.30;;;0.00;;
20367;SDS011;10343;52.402;9.796;2023-08-06T00:22:42;0.20;;;0.00;;
20367;SDS011;10343;52.402;9.796;2023-08-06T00:25:11;0.45;;;0.00;;
20367;SDS011;10343;52.402;9.796;2023-08-06T00:27:40;0.00;;;0.00;;
20367;SDS011;10343;52.402;9.796;2023-08-06T00:30:08;0.45;;;0.00;;
20367;SDS011;10343;52.402;9.796;2023-08-06T00:32:37;0.10;;;0.00;;
20367;SDS011;10343;52.402;9.796;2023-08-06T00:35:06;0.25;;;0.00;;
20367;SDS011;10343;52.402;9.796;2023-08-06T00:37:35;2.20;;;0.00;;
20367;SDS011;10343;52.402;9.796;2023-08-06T00:40:08;0.30;;;0.00;;
20367;SDS011;10343;52.402;9.796;2023-08-06T00:42:36;0.22;;;0.00;;
20367;SDS011;10343;52.402;9.796;2023-08-06T00:45:05;1.52;;;0.00;;
20367;SDS011;10343;52.402;9.796;2023-08-06T00:47:33;2.83;;;0.00;;
20367;SDS011;10343;52.402;9.796;2023-08-06T00:50:01;0.52;;;0.00;;
20367;SDS011;10343;52.402;9.796;2023-08-06T00:52:29;1.95;;;0.00;;
20367;SDS011;10343;52.402;9.796;2023-08-06T00:55:05;1.08;;;0.00;;
20367;SDS011;10343;52.402;9.796;2023-08-06T00:57:35;0.30;;;0.00;;
20367;SDS011;10343;52.402;9.796;2023-08-06T01:00:04;1.80;;;0.00;;
20367;SDS011;10343;52.402;9.796;2023-08-06T01:02:33;12.93;;;0.00;;
20367;SDS011;10343;52.402;9.796;2023-08-06T01:05:01;0.13;;;0.00;;
20367;SDS011;10343;52.402;9.796;2023-08-06T01:07:33;0.35;;;0.00;;
20367;SDS011;10343;52.402;9.796;2023-08-06T01:10:21;0.10;;;0.00;;
20367;SDS011;10343;52.402;9.796;2023-08-06T01:13:00;1.02;;;0.00;;
20367;SDS011;10343;52.402;9.796;2023-08-06T01:15:41;12.00;;;0.00;;
20367;SDS011;10343;52.402;9.796;2023-08-06T01:18:13;1.63;;;0.00;;
20367;SDS011;10343;52.402;9.796;2023-08-06T01:20:43;2.30;;;0.00;;
20367;SDS011;10343;52.402;9.796;2023-08-06T01:23:16;0.60;;;0.00;;
20367;SDS011;10343;52.402;9.796;2023-08-06T01:25:47;0.85;;;0.00;;
20367;SDS011;10343;52.402;9.796;2023-08-06T01:28:23;0.40;;;0.00;;
20367;SDS011;10343;52.402;9.796;2023-08-06T01:31:01;0.55;;;0.00;;
20367;SDS011;10343;52.402;9.796;2023-08-06T01:33:32;1.70;;;0.10;;
20367;SDS011;10343;52.402;9.796;2023-08-06T01:36:10;0.57;;;0.00;;
20367;SDS011;10343;52.402;9.796;2023-08-06T01:38:38;2.47;;;0.00;;
20367;SDS011;10343;52.402;9.796;2023-08-06T01:41:06;6.72;;;0.00;;
20367;SDS011;10343;52.402;9.796;2023-08-06T01:43:35;2.97;;;0.10;;
20367;SDS011;10343;52.402;9.796;2023-08-06T01:46:04;1.75;;;0.08;;
20367;SDS011;10343;52.402;9.796;2023-08-06T01:48:34;1.27;;;0.00;;
20367;SDS011;10343;52.402;9.796;2023-08-06T01:51:04;1.90;;;0.00;;
20367;SDS011;10343;52.402;9.796;2023-08-06T01:53:34;5.07;;;0.10;;
20367;SDS011;10343;52.402;9.796;2023-08-06T01:56:02;0.40;;;0.00;;
20367;SDS011;10343;52.402;9.796;2023-08-06T01:58:30;1.17;;;0.05;;
20367;SDS011;10343;52.402;9.796;2023-08-06T02:00:58;2.83;;;0.10;;
20367;SDS011;10343;52.402;9.796;2023-08-06T02:03:26;1.33;;;0.00;;
20367;SDS011;10343;52.402;9.796;2023-08-06T02:05:55;0.82;;;0.00;;
20367;SDS011;10343;52.402;9.796;2023-08-06T02:08:23;4.28;;;0.10;;
20367;SDS011;10343;52.402;9.796;2023-08-06T02:10:52;4.13;;;0.00;;
20367;SDS011;10343;52.402;9.796;2023-08-06T02:13:20;1.23;;;0.05;;
20367;SDS011;10343;52.402;9.796;2023-08-06T02:15:48;1.95;;;0.00;;
20367;SDS011;10343;52.402;9.796;2023-08-06T02:18:16;4.35;;;0.10;;
20367;SDS011;10343;52.402;9.796;2023-08-06T02:20:44;3.85;;;0.10;;
20367;SDS011;10343;52.402;9.796;2023-08-06T02:23:23;2.55;;;0.00;;
20367;SDS011;10343;52.402;9.796;2023-08-06T02:26:00;3.38;;;0.00;;
20367;SDS011;10343;52.402;9.796;2023-08-06T02:28:29;1.00;;;0.10;;
20367;SDS011;10343;52.402;9.796;2023-08-06T02:30:58;2.40;;;0.10;;
20367;SDS011;10343;52.402;9.796;2023-08-06T02:33:27;1.45;;;0.00;;
20367;SDS011;10343;52.402;9.796;2023-08-06T02:35:59;2.50;;;0.10;;
20367;SDS011;10343;52.402;9.796;2023-08-06T02:38:28;2.92;;;0.00;;
20367;SDS011;10343;52.402;9.796;2023-08-06T02:40:56;1.67;;;0.00;;
20367;SDS011;10343;52.402;9.796;2023-08-06T02:43:26;1.45;;;0.08;;
20367;SDS011;10343;52.402;9.796;2023-08-06T02:45:56;18.58;;;0.20;;
20367;SDS011;10343;52.402;9.796;2023-08-06T02:48:27;1.23;;;0.00;;
20367;SDS011;10343;52.402;9.796;2023-08-06T02:50:57;0.98;;;0.00;;
20367;SDS011;10343;52.402;9.796;2023-08-06T02:53:31;2.38;;;0.10;;
20367;SDS011;10343;52.402;9.796;2023-08-06T02:56:05;3.08;;;0.10;;
20367;SDS011;10343;52.402;9.796;2023-08-06T02:58:48;2.28;;;0.10;;
20367;SDS011;10343;52.402;9.796;2023-08-06T03:01:43;3.90;;;0.10;;
20367;SDS011;10343;52.402;9.796;2023-08-06T03:04:18;1.90;;;0.10;;
20367;SDS011;10343;52.402;9.796;2023-08-06T03:06:48;2.05;;;0.00;;
20367;SDS011;10343;52.402;9.796;2023-08-06T03:09:19;2.25;;;0.10;;
20367;SDS011;10343;52.402;9.796;2023-08-06T03:11:48;3.00;;;0.10;;
20367;SDS011;10343;52.402;9.796;2023-08-06T03:14:18;2.38;;;0.20;;
20367;SDS011;10343;52.402;9.796;2023-08-06T03:16:46;1.88;;;0.10;;
20367;SDS011;10343;52.402;9.796;2023-08-06T03:19:17;1.88;;;0.10;;
20367;SDS011;10343;52.402;9.796;2023-08-06T03:21:45;1.42;;;0.05;;
20367;SDS011;10343;52.402;9.796;2023-08-06T03:24:14;2.22;;;0.10;;
20367;SDS011;10343;52.402;9.796;2023-08-06T03:26:44;5.30;;;0.10;;
20367;SDS011;10343;52.402;9.796;2023-08-06T03:29:15;3.10;;;0.10;;
20367;SDS011;10343;52.402;9.796;2023-08-06T03:31:46;0.95;;;0.03;;
20367;SDS011;10343;52.402;9.796;2023-08-06T03:34:16;3.83;;;0.10;;
20367;SDS011;10343;52.402;9.796;2023-08-06T03:36:48;5.35;;;0.10;;
20367;SDS011;10343;52.402;9.796;2023-08-06T03:39:16;1.90;;;0.05;;
20367;SDS011;10343;52.402;9.796;2023-08-06T03:41:45;1.17;;;0.30;;
20367;SDS011;10343;52.402;9.796;2023-08-06T03:44:14;0.80;;;0.08;;
20367;SDS011;10343;52.402;9.796;2023-08-06T03:46:42;3.53;;;0.20;;
20367;SDS011;10343;52.402;9.796;2023-08-06T03:49:14;3.00;;;0.10;;
20367;SDS011;10343;52.402;9.796;2023-08-06T03:51:43;1.33;;;0.10;;
20367;SDS011;10343;52.402;9.796;2023-08-06T03:54:14;5.05;;;0.10;;
20367;SDS011;10343;52.402;9.796;2023-08-06T03:56:52;4.15;;;0.30;;
20367;SDS011;10343;52.402;9.796;2023-08-06T03:59:20;2.58;;;0.10;;
20367;SDS011;10343;52.402;9.796;2023-08-06T04:01:48;2.20;;;0.08;;
20367;SDS011;10343;52.402;9.796;2023-08-06T04:04:19;1.17;;;0.10;;
20367;SDS011;10343;52.402;9.796;2023-08-06T04:06:49;2.75;;;0.10;;
20367;SDS011;10343;52.402;9.796;2023-08-06T04:09:17;1.88;;;0.10;;
20367;SDS011;10343;52.402;9.796;2023-08-06T04:11:45;1.92;;;0.10;;
20367;SDS011;10343;52.402;9.796;2023-08-06T04:14:13;7.28;;;0.10;;
20367;SDS011;10343;52.402;9.796;2023-08-06T04:16:41;8.32;;;0.20;;
20367;SDS011;10343;52.402;9.796;2023-08-06T04:19:09;2.78;;;0.10;;
20367;SDS011;10343;52.402;9.796;2023-08-06T04:21:39;2.88;;;0.10;;
20367;SDS011;10343;52.402;9.796;2023-08-06T04:24:06;2.88;;;0.10;;
20367;SDS011;10343;52.402;9.796;2023-08-06T04:26:34;2.15;;;0.10;;
20367;SDS011;10343;52.402;9.796;2023-08-06T04:29:04;1.27;;;0.03;;
20367;SDS011;10343;52.402;9.796;2023-08-06T04:31:33;4.57;;;0.10;;
20367;SDS011;10343;52.402;9.796;2023-08-06T04:34:01;3.80;;;0.10;;
20367;SDS011;10343;52.402;9.796;2023-08-06T04:36:29;4.53;;;0.10;;
20367;SDS011;10343;52.402;9.796;2023-08-06T04:39:02;2.20;;;0.15;;
20367;SDS011;10343;52.402;9.796;2023-08-06T04:41:30;2.22;;;0.10;;
20367;SDS011;10343;52.402;9.796;2023-08-06T04:43:58;2.35;;;0.10;;
20367;SDS011;10343;52.402;9.796;2023-08-06T04:46:27;3.80;;;0.10;;
20367;SDS011;10343;52.402;9.796;2023-08-06T04:48:55;1.98;;;0.17;;
20367;SDS011;10343;52.402;9.796;2023-08-06T04:51:23;2.72;;;0.10;;
20367;SDS011;10343;52.402;9.796;2023-08-06T04:53:51;2.65;;;0.10;;
20367;SDS011;10343;52.402;9.796;2023-08-06T04:56:21;2.28;;;0.10;;
20367;SDS011;10343;52.402;9.796;2023-08-06T04:58:50;0.55;;;0.00;;
20367;SDS011;10343;52.402;9.796;2023-08-06T05:01:18;5.85;;;0.10;;
20367;SDS011;10343;52.402;9.796;2023-08-06T05:03:49;2.80;;;0.10;;
20367;SDS011;10343;52.402;9.796;2023-08-06T05:06:19;3.22;;;0.10;;
20367;SDS011;10343;52.402;9.796;2023-08-06T05:08:46;1.75;;;0.10;;
20367;SDS011;10343;52.402;9.796;2023-08-06T05:11:14;2.40;;;0.10;;
20367;SDS011;10343;52.402;9.796;2023-08-06T05:13:44;1.80;;;0.10;;
20367;SDS011;10343;52.402;9.796;2023-08-06T05:16:11;3.53;;;0.10;;
20367;SDS011;10343;52.402;9.796;2023-08-06T05:18:39;2.70;;;0.08;;
20367;SDS011;10343;52.402;9.796;2023-08-06T05:21:10;2.25;;;0.10;;
20367;SDS011;10343;52.402;9.796;2023-08-06T05:23:40;1.88;;;0.10;;
20367;SDS011;10343;52.402;9.796;2023-08-06T05:26:08;9.00;;;0.38;;
20367;SDS011;10343;52.402;9.796;2023-08-06T05:28:36;2.50;;;0.10;;
20367;SDS011;10343;52.402;9.796;2023-08-06T05:31:07;9.43;;;0.10;;
20367;SDS011;10343;52.402;9.796;2023-08-06T05:33:35;2.50;;;0.10;;
20367;SDS011;10343;52.402;9.796;2023-08-06T05:36:04;0.77;;;0.00;;
20367;SDS011;10343;52.402;9.796;2023-08-06T05:38:32;1.25;;;0.00;;
20367;SDS011;10343;52.402;9.796;2023-08-06T05:41:00;2.38;;;0.10;;
20367;SDS011;10343;52.402;9.796;2023-08-06T05:43:28;1.38;;;0.00;;
20367;SDS011;10343;52.402;9.796;2023-08-06T05:45:57;2.58;;;0.08;;
20367;SDS011;10343;52.402;9.796;2023-08-06T05:48:26;2.47;;;0.00;;
20367;SDS011;10343;52.402;9.796;2023-08-06T05:50:54;1.00;;;0.00;;
20367;SDS011;10343;52.402;9.796;2023-08-06T05:53:22;0.65;;;0.00;;
20367;SDS011;10343;52.402;9.796;2023-08-06T05:55:50;4.80;;;0.05;;
20367;SDS011;10343;52.402;9.796;2023-08-06T05:58:18;2.05;;;0.00;;
20367;SDS011;10343;52.402;9.796;2023-08-06T06:00:48;0.98;;;0.00;;
20367;SDS011;10343;52.402;9.796;2023-08-06T06:03:16;6.43;;;0.00;;
20367;SDS011;10343;52.402;9.796;2023-08-06T06:05:46;1.15;;;0.00;;
20367;SDS011;10343;52.402;9.796;2023-08-06T06:08:14;0.75;;;0.00;;
20367;SDS011;10343;52.402;9.796;2023-08-06T06:10:42;3.38;;;0.00;;
20367;SDS011;10343;52.402;9.796;2023-08-06T06:13:10;6.15;;;0.00;;
20367;SDS011;10343;52.402;9.796;2023-08-06T06:15:38;0.90;;;0.00;;
20367;SDS011;10343;52.402;9.796;2023-08-06T06:18:06;1.02;;;0.00;;
20367;SDS011;10343;52.402;9.796;2023-08-06T06:20:34;0.57;;;0.00;;
20367;SDS011;10343;52.402;9.796;2023-08-06T06:23:03;1.17;;;0.00;;
20367;SDS011;10343;52.402;9.796;2023-08-06T06:25:31;2.78;;;0.00;;
20367;SDS011;10343;52.402;9.796;2023-08-06T06:28:00;0.20;;;0.00;;
20367;SDS011;10343;52.402;9.796;2023-08-06T06:30:29;1.65;;;0.00;;
20367;SDS011;10343;52.402;9.796;2023-08-06T06:32:57;0.60;;;0.00;;
20367;SDS011;10343;52.402;9.796;2023-08-06T06:35:27;1.38;;;0.00;;
20367;SDS011;10343;52.402;9.796;2023-08-06T06:37:58;2.13;;;0.00;;
20367;SDS011;10343;52.402;9.796;2023-08-06T06:40:29;0.20;;;0.00;;
20367;SDS011;10343;52.402;9.796;2023-08-06T06:42:58;0.17;;;0.00;;
20367;SDS011;10343;52.402;9.796;2023-08-06T06:45:26;0.32;;;0.00;;
20367;SDS011;10343;52.402;9.796;2023-08-06T06:47:54;0.20;;;0.00;;
20367;SDS011;10343;52.402;9.796;2023-08-06T06:50:24;0.63;;;0.00;;
20367;SDS011;10343;52.402;9.796;2023-08-06T06:52:53;2.15;;;0.00;;
20367;SDS011;10343;52.402;9.796;2023-08-06T06:55:21;1.77;;;0.00;;
20367;SDS011;10343;52.402;9.796;2023-08-06T06:57:50;0.65;;;0.00;;
20367;SDS011;10343;52.402;9.796;2023-08-06T07:00:18;0.00;;;0.00;;
20367;SDS011;10343;52.402;9.796;2023-08-06T07:02:53;0.47;;;0.00;;
20367;SDS011;10343;52.402;9.796;2023-08-06T07:05:21;2.90;;;0.00;;
20367;SDS011;10343;52.402;9.796;2023-08-06T07:07:49;0.43;;;0.00;;
20367;SDS011;10343;52.402;9.796;2023-08-06T07:10:19;0.52;;;0.00;;
20367;SDS011;10343;52.402;9.796;2023-08-06T07:12:48;0.22;;;0.00;;
20367;SDS011;10343;52.402;9.796;2023-08-06T07:15:17;0.45;;;0.00;;
20367;SDS011;10343;52.402;9.796;2023-08-06T07:17:45;3.00;;;0.00;;
20367;SDS011;10343;52.402;9.796;2023-08-06T07:20:14;1.17;;;0.00;;
20367;SDS011;10343;52.402;9.796;2023-08-06T07:22:43;0.30;;;0.00;;
20367;SDS011;10343;52.402;9.796;2023-08-06T07:25:11;0.20;;;0.00;;
20367;SDS011;10343;52.402;9.796;2023-08-06T07:27:39;0.30;;;0.00;;
20367;SDS011;10343;52.402;9.796;2023-08-06T07:30:08;0.00;;;0.00;;
20367;SDS011;10343;52.402;9.796;2023-08-06T07:32:37;0.00;;;0.00;;
20367;SDS011;10343;52.402;9.796;2023-08-06T07:35:08;0.10;;;0.00;;
20367;SDS011;10343;52.402;9.796;2023-08-06T07:37:39;0.13;;;0.00;;
20367;SDS011;10343;52.402;9.796;2023-08-06T07:40:07;0.10;;;0.00;;
20367;SDS011;10343;52.402;9.796;2023-08-06T07:42:37;0.30;;;0.00;;
20367;SDS011;10343;52.402;9.796;2023-08-06T07:45:06;0.55;;;0.00;;
20367;SDS011;10343;52.402;9.796;2023-08-06T07:47:38;0.03;;;0.00;;
20367;SDS011;10343;52.402;9.796;2023-08-06T07:50:06;0.30;;;0.00;;
20367;SDS011;10343;52.402;9.796;2023-08-06T07:52:35;0.75;;;0.00;;
20367;SDS011;10343;52.402;9.796;2023-08-06T07:55:03;0.00;;;0.00;;
20367;SDS011;10343;52.402;9.796;2023-08-06T07:57:32;0.40;;;0.00;;
20367;SDS011;10343;52.402;9.796;2023-08-06T08:00:01;0.10;;;0.00;;
20367;SDS011;10343;52.402;9.796;2023-08-06T08:02:39;0.10;;;0.00;;
20367;SDS011;10343;52.402;9.796;2023-08-06T08:05:08;0.65;;;0.00;;
20367;SDS011;10343;52.402;9.796;2023-08-06T08:07:36;4.10;;;0.00;;
20367;SDS011;10343;52.402;9.796;2023-08-06T08:10:06;2.10;;;0.00;;
20367;SDS011;10343;52.402;9.796;2023-08-06T08:12:35;0.20;;;0.00;;
20367;SDS011;10343;52.402;9.796;2023-08-06T08:15:03;0.00;;;0.00;;
20367;SDS011;10343;52.402;9.796;2023-08-06T08:17:32;0.00;;;0.00;;
20367;SDS011;10343;52.402;9.796;2023-08-06T08:20:02;1.98;;;0.00;;
20367;SDS011;10343;52.402;9.796;2023-08-06T08:22:34;0.08;;;0.00;;
20367;SDS011;10343;52.402;9.796;2023-08-06T08:25:07;2.17;;;0.00;;
20367;SDS011;10343;52.402;9.796;2023-08-06T08:27:35;0.10;;;0.00;;
20367;SDS011;10343;52.402;9.796;2023-08-06T08:30:03;0.75;;;0.00;;
20367;SDS011;10343;52.402;9.796;2023-08-06T08:32:33;1.40;;;0.00;;
20367;SDS011;10343;52.402;9.796;2023-08-06T08:35:05;0.00;;;0.00;;
20367;SDS011;10343;52.402;9.796;2023-08-06T08:37:33;0.00;;;0.00;;
20367;SDS011;10343;52.402;9.796;2023-08-06T08:40:01;0.70;;;0.00;;
20367;SDS011;10343;52.402;9.796;2023-08-06T08:42:30;0.32;;;0.00;;
20367;SDS011;10343;52.402;9.796;2023-08-06T08:44:58;0.10;;;0.00;;
20367;SDS011;10343;52.402;9.796;2023-08-06T08:47:26;0.85;;;0.00;;
20367;SDS011;10343;52.402;9.796;2023-08-06T08:49:54;4.25;;;0.00;;
20367;SDS011;10343;52.402;9.796;2023-08-06T08:52:23;0.20;;;0.00;;
20367;SDS011;10343;52.402;9.796;2023-08-06T08:54:56;0.95;;;0.00;;
20367;SDS011;10343;52.402;9.796;2023-08-06T08:57:27;0.00;;;0.00;;
20367;SDS011;10343;52.402;9.796;2023-08-06T08:59:55;0.05;;;0.00;;
20367;SDS011;10343;52.402;9.796;2023-08-06T09:02:23;0.17;;;0.00;;
20367;SDS011;10343;52.402;9.796;2023-08-06T09:04:55;0.20;;;0.00;;
20367;SDS011;10343;52.402;9.796;2023-08-06T09:07:27;0.13;;;0.00;;
20367;SDS011;10343;52.402;9.796;2023-08-06T09:10:05;0.03;;;0.00;;
20367;SDS011;10343;52.402;9.796;2023-08-06T09:12:44;0.00;;;0.00;;
20367;SDS011;10343;52.402;9.796;2023-08-06T09:15:14;3.10;;;0.00;;
20367;SDS011;10343;52.402;9.796;2023-08-06T09:17:45;0.10;;;0.00;;
20367;SDS011;10343;52.402;9.796;2023-08-06T09:20:15;4.88;;;0.00;;
20367;SDS011;10343;52.402;9.796;2023-08-06T09:22:46;1.00;;;0.00;;
20367;SDS011;10343;52.402;9.796;2023-08-06T09:25:20;0.80;;;0.00;;
20367;SDS011;10343;52.402;9.796;2023-08-06T09:27:50;2.55;;;0.00;;
20367;SDS011;10343;52.402;9.796;2023-08-06T09:30:32;0.10;;;0.00;;
20367;SDS011;10343;52.402;9.796;2023-08-06T09:33:00;0.47;;;0.00;;
20367;SDS011;10343;52.402;9.796;2023-08-06T09:35:29;0.47;;;0.00;;
20367;SDS011;10343;52.402;9.796;2023-08-06T09:38:06;0.65;;;0.00;;
20367;SDS011;10343;52.402;9.796;2023-08-06T09:40:38;0.20;;;0.00;;
20367;SDS011;10343;52.402;9.796;2023-08-06T09:43:06;0.30;;;0.00;;
20367;SDS011;10343;52.402;9.796;2023-08-06T09:45:35;0.30;;;0.00;;
20367;SDS011;10343;52.402;9.796;2023-08-06T09:48:04;1.70;;;0.00;;
20367;SDS011;10343;52.402;9.796;2023-08-06T09:50:38;3.45;;;0.00;;
20367;SDS011;10343;52.402;9.796;2023-08-06T09:53:09;0.00;;;0.00;;
20367;SDS011;10343;52.402;9.796;2023-08-06T09:55:38;0.10;;;0.00;;
20367;SDS011;10343;52.402;9.796;2023-08-06T09:58:06;0.00;;;0.00;;
20367;SDS011;10343;52.402;9.796;2023-08-06T10:00:38;0.28;;;0.00;;
20367;SDS011;10343;52.402;9.796;2023-08-06T10:03:09;0.15;;;0.00;;
20367;SDS011;10343;52.402;9.796;2023-08-06T10:05:43;0.52;;;0.00;;
20367;SDS011;10343;52.402;9.796;2023-08-06T10:08:16;1.65;;;0.00;;
20367;SDS011;10343;52.402;9.796;2023-08-06T10:10:44;0.30;;;0.00;;
20367;SDS011;10343;52.402;9.796;2023-08-06T10:13:15;1.20;;;0.00;;
20367;SDS011;10343;52.402;9.796;2023-08-06T10:15:45;0.43;;;0.00;;
20367;SDS011;10343;52.402;9.796;2023-08-06T10:18:15;3.53;;;0.00;;
20367;SDS011;10343;52.402;9.796;2023-08-06T10:20:48;0.30;;;0.00;;
20367;SDS011;10343;52.402;9.796;2023-08-06T10:23:17;0.20;;;0.00;;
20367;SDS011;10343;52.402;9.796;2023-08-06T10:25:53;0.00;;;0.00;;
20367;SDS011;10343;52.402;9.796;2023-08-06T10:28:22;0.85;;;0.00;;
20367;SDS011;10343;52.402;9.796;2023-08-06T10:31:01;0.00;;;0.00;;
20367;SDS011;10343;52.402;9.796;2023-08-06T10:33:39;1.50;;;0.00;;
20367;SDS011;10343;52.402;9.796;2023-08-06T10:36:10;0.00;;;0.00;;
20367;SDS011;10343;52.402;9.796;2023-08-06T10:38:46;0.00;;;0.00;;
20367;SDS011;10343;52.402;9.796;2023-08-06T10:41:16;0.00;;;0.00;;
20367;SDS011;10343;52.402;9.796;2023-08-06T10:43:49;2.95;;;0.00;;
20367;SDS011;10343;52.402;9.796;2023-08-06T10:46:22;4.55;;;0.00;;
20367;SDS011;10343;52.402;9.796;2023-08-06T10:48:54;0.20;;;0.00;;
20367;SDS011;10343;52.402;9.796;2023-08-06T10:51:22;5.10;;;0.00;;
20367;SDS011;10343;52.402;9.796;2023-08-06T10:53:52;0.35;;;0.00;;
20367;SDS011;10343;52.402;9.796;2023-08-06T10:56:22;0.45;;;0.00;;
20367;SDS011;10343;52.402;9.796;2023-08-06T10:58:55;0.00;;;0.00;;
20367;SDS011;10343;52.402;9.796;2023-08-06T11:01:23;0.08;;;0.00;;
20367;SDS011;10343;52.402;9.796;2023-08-06T11:03:53;0.43;;;0.00;;
20367;SDS011;10343;52.402;9.796;2023-08-06T11:06:22;0.38;;;0.00;;
20367;SDS011;10343;52.402;9.796;2023-08-06T11:08:54;0.80;;;0.00;;
20367;SDS011;10343;52.402;9.796;2023-08-06T11:11:24;0.90;;;0.00;;
20367;SDS011;10343;52.402;9.796;2023-08-06T11:13:51;0.20;;;0.00;;
20367;SDS011;10343;52.402;9.796;2023-08-06T11:16:22;0.00;;;0.00;;
20367;SDS011;10343;52.402;9.796;2023-08-06T11:18:52;4.20;;;0.00;;
20367;SDS011;10343;52.402;9.796;2023-08-06T11:21:23;0.08;;;0.00;;
20367;SDS011;10343;52.402;9.796;2023-08-06T11:23:51;0.20;;;0.00;;
20367;SDS011;10343;52.402;9.796;2023-08-06T11:26:22;0.00;;;0.00;;
20367;SDS011;10343;52.402;9.796;2023-08-06T11:28:52;0.10;;;0.00;;
20367;SDS011;10343;52.402;9.796;2023-08-06T11:31:20;0.38;;;0.00;;
20367;SDS011;10343;52.402;9.796;2023-08-06T11:33:49;0.43;;;0.00;;
20367;SDS011;10343;52.402;9.796;2023-08-06T11:36:28;0.80;;;0.00;;
20367;SDS011;10343;52.402;9.796;2023-08-06T11:38:58;1.98;;;0.00;;
20367;SDS011;10343;52.402;9.796;2023-08-06T11:41:28;1.23;;;0.00;;
20367;SDS011;10343;52.402;9.796;2023-08-06T11:43:57;0.68;;;0.00;;
20367;SDS011;10343;52.402;9.796;2023-08-06T11:46:25;0.00;;;0.00;;
20367;SDS011;10343;52.402;9.796;2023-08-06T11:48:53;0.22;;;0.00;;
20367;SDS011;10343;52.402;9.796;2023-08-06T11:51:22;2.10;;;0.00;;
20367;SDS011;10343;52.402;9.796;2023-08-06T11:53:54;0.00;;;0.00;;
20367;SDS011;10343;52.402;9.796;2023-08-06T11:56:23;0.25;;;0.00;;
20367;SDS011;10343;52.402;9.796;2023-08-06T11:58:57;1.10;;;0.00;;
20367;SDS011;10343;52.402;9.796;2023-08-06T12:01:25;0.00;;;0.00;;
20367;SDS011;10343;52.402;9.796;2023-08-06T12:03:58;0.00;;;0.00;;
20367;SDS011;10343;52.402;9.796;2023-08-06T12:06:26;0.00;;;0.00;;
20367;SDS011;10343;52.402;9.796;2023-08-06T12:08:54;0.00;;;0.00;;
20367;SDS011;10343;52.402;9.796;2023-08-06T12:11:23;0.00;;;0.00;;
20367;SDS011;10343;52.402;9.796;2023-08-06T12:13:51;0.05;;;0.00;;
20367;SDS011;10343;52.402;9.796;2023-08-06T12:16:20;0.98;;;0.00;;
20367;SDS011;10343;52.402;9.796;2023-08-06T12:18:50;0.93;;;0.00;;
20367;SDS011;10343;52.402;9.796;2023-08-06T12:21:18;0.00;;;0.00;;
20367;SDS011;10343;52.402;9.796;2023-08-06T12:23:46;2.60;;;0.00;;
20367;SDS011;10343;52.402;9.796;2023-08-06T12:26:14;0.20;;;0.00;;
20367;SDS011;10343;52.402;9.796;2023-08-06T12:28:41;0.13;;;0.00;;
20367;SDS011;10343;52.402;9.796;2023-08-06T12:31:11;0.47;;;0.00;;
20367;SDS011;10343;52.402;9.796;2023-08-06T12:33:40;0.05;;;0.00;;
20367;SDS011;10343;52.402;9.796;2023-08-06T12:36:08;0.00;;;0.00;;
20367;SDS011;10343;52.402;9.796;2023-08-06T12:38:36;0.10;;;0.00;;
20367;SDS011;10343;52.402;9.796;2023-08-06T12:41:06;0.75;;;0.00;;
20367;SDS011;10343;52.402;9.796;2023-08-06T12:43:35;1.70;;;0.00;;
20367;SDS011;10343;52.402;9.796;2023-08-06T12:46:03;0.20;;;0.00;;
20367;SDS011;10343;52.402;9.796;2023-08-06T12:48:33;0.10;;;0.00;;
20367;SDS011;10343;52.402;9.796;2023-08-06T12:51:08;0.20;;;0.00;;
20367;SDS011;10343;52.402;9.796;2023-08-06T12:53:37;0.20;;;0.00;;
20367;SDS011;10343;52.402;9.796;2023-08-06T12:56:05;1.08;;;0.00;;
20367;SDS011;10343;52.402;9.796;2023-08-06T12:58:35;0.93;;;0.00;;
20367;SDS011;10343;52.402;9.796;2023-08-06T13:01:07;0.13;;;0.00;;
20367;SDS011;10343;52.402;9.796;2023-08-06T13:03:38;0.45;;;0.00;;
20367;SDS011;10343;52.402;9.796;2023-08-06T13:06:07;0.10;;;0.00;;
20367;SDS011;10343;52.402;9.796;2023-08-06T13:08:36;0.52;;;0.00;;
20367;SDS011;10343;52.402;9.796;2023-08-06T13:11:06;0.10;;;0.00;;
20367;SDS011;10343;52.402;9.796;2023-08-06T13:13:34;0.30;;;0.00;;
20367;SDS011;10343;52.402;9.796;2023-08-06T13:16:02;5.93;;;0.00;;
20367;SDS011;10343;52.402;9.796;2023-08-06T13:18:49;1.20;;;0.00;;
20367;SDS011;10343;52.402;9.796;2023-08-06T13:21:18;0.10;;;0.00;;
20367;SDS011;10343;52.402;9.796;2023-08-06T13:23:46;1.40;;;0.00;;
20367;SDS011;10343;52.402;9.796;2023-08-06T13:26:16;1.40;;;0.00;;
20367;SDS011;10343;52.402;9.796;2023-08-06T13:28:56;1.00;;;0.00;;
20367;SDS011;10343;52.402;9.796;2023-08-06T13:31:24;0.40;;;0.00;;
20367;SDS011;10343;52.402;9.796;2023-08-06T13:33:55;0.13;;;0.00;;
20367;SDS011;10343;52.402;9.796;2023-08-06T13:36:26;0.43;;;0.00;;
20367;SDS011;10343;52.402;9.796;2023-08-06T13:38:57;0.20;;;0.00;;
20367;SDS011;10343;52.402;9.796;2023-08-06T13:41:25;0.15;;;0.00;;
20367;SDS011;10343;52.402;9.796;2023-08-06T13:43:53;0.45;;;0.00;;
20367;SDS011;10343;52.402;9.796;2023-08-06T13:46:21;0.20;;;0.00;;
20367;SDS011;10343;52.402;9.796;2023-08-06T13:48:51;3.10;;;0.00;;
20367;SDS011;10343;52.402;9.796;2023-08-06T13:51:19;1.75;;;0.00;;
20367;SDS011;10343;52.402;9.796;2023-08-06T13:53:48;0.13;;;0.00;;
20367;SDS011;10343;52.402;9.796;2023-08-06T13:56:19;0.05;;;0.00;;
20367;SDS011;10343;52.402;9.796;2023-08-06T13:58:47;2.72;;;0.00;;
20367;SDS011;10343;52.402;9.796;2023-08-06T14:01:16;0.10;;;0.00;;
20367;SDS011;10343;52.402;9.796;2023-08-06T14:04:10;0.60;;;0.00;;
20367;SDS011;10343;52.402;9.796;2023-08-06T14:06:37;2.60;;;0.00;;
20367;SDS011;10343;52.402;9.796;2023-08-06T14:09:08;1.65;;;0.00;;
20367;SDS011;10343;52.402;9.796;2023-08-06T14:11:38;0.30;;;0.00;;
20367;SDS011;10343;52.402;9.796;2023-08-06T14:14:06;0.10;;;0.00;;
20367;SDS011;10343;52.402;9.796;2023-08-06T14:16:35;0.10;;;0.00;;
20367;SDS011;10343;52.402;9.796;2023-08-06T14:19:05;0.13;;;0.00;;
20367;SDS011;10343;52.402;9.796;2023-08-06T14:21:40;0.35;;;0.00;;
20367;SDS011;10343;52.402;9.796;2023-08-06T14:24:09;0.95;;;0.00;;
20367;SDS011;10343;52.402;9.796;2023-08-06T14:26:38;1.92;;;0.00;;
20367;SDS011;10343;52.402;9.796;2023-08-06T14:29:09;0.10;;;0.00;;
20367;SDS011;10343;52.402;9.796;2023-08-06T14:31:42;0.00;;;0.00;;
20367;SDS011;10343;52.402;9.796;2023-08-06T14:34:21;0.10;;;0.00;;
20367;SDS011;10343;52.402;9.796;2023-08-06T14:36:50;0.15;;;0.00;;
20367;SDS011;10343;52.402;9.796;2023-08-06T14:39:20;0.10;;;0.00;;
20367;SDS011;10343;52.402;9.796;2023-08-06T14:41:48;0.28;;;0.00;;
20367;SDS011;10343;52.402;9.796;2023-08-06T14:44:15;3.78;;;0.00;;
20367;SDS011;10343;52.402;9.796;2023-08-06T14:46:44;0.17;;;0.00;;
20367;SDS011;10343;52.402;9.796;2023-08-06T14:49:12;0.32;;;0.00;;
20367;SDS011;10343;52.402;9.796;2023-08-06T14:51:45;0.13;;;0.00;;
20367;SDS011;10343;52.402;9.796;2023-08-06T14:54:13;0.57;;;0.00;;
20367;SDS011;10343;52.402;9.796;2023-08-06T14:56:43;1.08;;;0.00;;
20367;SDS011;10343;52.402;9.796;2023-08-06T14:59:11;2.17;;;0.00;;
20367;SDS011;10343;52.402;9.796;2023-08-06T15:01:38;0.75;;;0.00;;
20367;SDS011;10343;52.402;9.796;2023-08-06T15:04:08;1.95;;;0.00;;
20367;SDS011;10343;52.402;9.796;2023-08-06T15:06:36;2.58;;;0.00;;